createdAt,value
2022-11-08T00:00:56.459Z,71.34
2022-11-08T00:01:59.064Z,71.50
2022-11-08T00:03:01.338Z,71.40
2022-11-08T00:04:12.404Z,71.48
2022-11-08T00:05:33.329Z,71.47
2022-11-08T00:06:54.645Z,71.22
2022-11-08T00:08:15.453Z,71.65
2022-11-08T00:09:36.433Z,71.38
2022-11-08T00:10:57.043Z,71.55
2022-11-08T00:12:18.247Z,71.26
2022-11-08T00:13:39.670Z,71.37
2022-11-08T00:14:42.740Z,71.59
2022-11-08T00:15:44.918Z,71.66
2022-11-08T00:16:47.114Z,71.59
2022-11-08T00:17:49.623Z,71.60
2022-11-08T00:18:51.817Z,71.50
2022-11-08T00:19:54.587Z,71.53
2022-11-08T00:21:01.427Z,71.82
2022-11-08T00:22:03.787Z,71.82
2022-11-08T00:23:07.384Z,71.98
2022-11-08T00:24:09.570Z,72.20
2022-11-08T00:25:11.890Z,72.49
2022-11-08T00:26:14.010Z,72.27
2022-11-08T00:27:21.885Z,72.36
2022-11-08T00:28:24.197Z,72.41
2022-11-08T00:29:26.404Z,72.45
2022-11-08T00:30:28.559Z,72.43
2022-11-08T00:31:30.689Z,72.45
2022-11-08T00:32:33.127Z,72.69
2022-11-08T00:33:35.482Z,72.63
2022-11-08T00:34:37.638Z,72.65
2022-11-08T00:35:40.110Z,72.31
2022-11-08T00:36:42.321Z,72.02
2022-11-08T00:37:44.652Z,72.34
2022-11-08T00:38:46.969Z,72.42
2022-11-08T00:39:49.862Z,72.48
2022-11-08T00:40:52.289Z,72.51
2022-11-08T00:41:54.587Z,72.48
2022-11-08T00:42:56.910Z,72.60
2022-11-08T00:43:59.092Z,72.51
2022-11-08T00:45:01.214Z,72.36
2022-11-08T00:46:03.581Z,72.43
2022-11-08T00:47:06.003Z,72.40
2022-11-08T00:48:08.317Z,72.33
2022-11-08T00:49:10.606Z,72.30
2022-11-08T00:50:12.770Z,71.98
2022-11-08T00:51:15.077Z,72.17
2022-11-08T00:52:17.214Z,72.30
2022-11-08T00:53:19.376Z,72.28
2022-11-08T00:54:22.337Z,72.32
2022-11-08T00:55:24.483Z,72.33
2022-11-08T00:56:26.948Z,72.45
2022-11-08T00:57:46.922Z,72.49
2022-11-08T00:58:51.196Z,72.52
2022-11-08T00:59:53.419Z,72.68
2022-11-08T01:00:56.135Z,72.73
2022-11-08T01:01:58.556Z,72.60
2022-11-08T01:03:18.972Z,72.52
2022-11-08T01:04:21.226Z,72.66
2022-11-08T01:05:23.401Z,72.53
2022-11-08T01:06:26.358Z,72.65
2022-11-08T01:07:28.550Z,72.62
2022-11-08T01:08:31.147Z,72.60
2022-11-08T01:09:33.312Z,72.60
2022-11-08T01:10:35.755Z,72.67
2022-11-08T01:11:38.930Z,72.99
2022-11-08T01:12:41.140Z,72.86
2022-11-08T01:13:43.568Z,72.89
2022-11-08T01:14:45.915Z,73.04
2022-11-08T01:15:48.422Z,73.14
2022-11-08T01:16:50.681Z,72.89
2022-11-08T01:17:53.157Z,72.82
2022-11-08T01:18:57.287Z,72.75
2022-11-08T01:19:59.620Z,72.84
2022-11-08T01:21:03.590Z,73.24
2022-11-08T01:22:05.939Z,73.53
2022-11-08T01:23:08.959Z,73.50
2022-11-08T01:24:11.100Z,73.74
2022-11-08T01:25:13.623Z,73.94
2022-11-08T01:26:18.595Z,73.83
2022-11-08T01:27:20.738Z,73.85
2022-11-08T01:28:23.090Z,73.66
2022-11-08T01:29:25.423Z,73.85
2022-11-08T01:30:27.748Z,73.56
2022-11-08T01:31:32.133Z,73.74
2022-11-08T01:32:34.275Z,73.61
2022-11-08T01:33:37.187Z,73.74
2022-11-08T01:34:39.516Z,74.16
2022-11-08T01:35:44.776Z,73.88
2022-11-08T01:36:46.941Z,74.00
2022-11-08T01:37:49.120Z,74.01
2022-11-08T01:38:51.882Z,74.02
2022-11-08T01:39:54.446Z,74.23
2022-11-08T01:40:56.584Z,73.86
2022-11-08T01:41:58.745Z,73.85
2022-11-08T01:43:30.627Z,74.21
2022-11-08T01:44:32.774Z,74.35
2022-11-08T01:46:09.593Z,74.12
2022-11-08T01:47:11.730Z,73.99
2022-11-08T01:48:14.054Z,73.95
2022-11-08T01:49:19.825Z,74.26
2022-11-08T01:50:22.351Z,74.56
2022-11-08T01:51:30.983Z,74.34
2022-11-08T01:52:54.443Z,74.14
2022-11-08T01:53:58.908Z,73.90
2022-11-08T01:55:15.932Z,73.95
2022-11-08T01:56:19.954Z,74.09
2022-11-08T01:57:36.768Z,74.10
2022-11-08T01:58:41.605Z,74.38
2022-11-08T01:59:47.096Z,74.30
2022-11-08T02:00:49.642Z,74.30
2022-11-08T02:01:52.125Z,74.33
2022-11-08T02:03:01.603Z,74.48
2022-11-08T02:04:04.640Z,74.69
2022-11-08T02:05:24.846Z,74.92
2022-11-08T02:06:29.969Z,74.72
2022-11-08T02:07:34.291Z,74.76
2022-11-08T02:08:39.088Z,75.19
2022-11-08T02:09:44.679Z,75.22
2022-11-08T02:10:50.692Z,75.27
2022-11-08T02:11:53.855Z,75.29
2022-11-08T02:12:56.440Z,75.01
2022-11-08T02:13:58.929Z,74.79
2022-11-08T02:15:01.577Z,74.58
2022-11-08T02:16:11.770Z,74.46
2022-11-08T02:17:14.559Z,74.44
2022-11-08T02:18:19.541Z,74.46
2022-11-08T02:19:38.213Z,74.65
2022-11-08T02:21:09.278Z,74.62
2022-11-08T02:22:21.397Z,74.67
2022-11-08T02:23:45.241Z,75.03
2022-11-08T02:24:47.965Z,75.11
2022-11-08T02:25:50.410Z,75.15
2022-11-08T02:26:55.310Z,74.98
2022-11-08T02:27:57.477Z,75.28
2022-11-08T02:29:19.980Z,75.29
2022-11-08T02:30:22.358Z,75.23
2022-11-08T02:31:24.597Z,75.69
2022-11-08T02:32:27.214Z,75.52
2022-11-08T02:33:29.509Z,75.50
2022-11-08T02:34:40.639Z,75.22
2022-11-08T02:35:46.412Z,75.23
2022-11-08T02:36:49.625Z,74.99
2022-11-08T02:37:52.068Z,75.19
2022-11-08T02:38:57.677Z,75.47
2022-11-08T02:40:00.008Z,75.80
2022-11-08T02:41:02.370Z,75.75
2022-11-08T02:42:04.741Z,76.02
2022-11-08T02:43:07.062Z,75.88
2022-11-08T02:44:09.241Z,76.16
2022-11-08T02:45:11.578Z,76.06
2022-11-08T02:46:13.744Z,75.93
2022-11-08T02:47:16.760Z,75.97
2022-11-08T02:48:20.792Z,75.83
2022-11-08T02:49:23.455Z,75.97
2022-11-08T02:50:25.864Z,76.28
2022-11-08T02:51:28.046Z,76.01
2022-11-08T02:52:30.233Z,76.03
2022-11-08T02:53:32.964Z,76.00
2022-11-08T02:54:35.146Z,76.42
2022-11-08T02:55:37.652Z,76.42
2022-11-08T02:56:40.026Z,76.49
2022-11-08T02:57:42.235Z,76.27
2022-11-08T02:58:44.791Z,76.06
2022-11-08T02:59:47.155Z,76.30
2022-11-08T03:00:49.297Z,75.91
2022-11-08T03:01:51.778Z,75.71
2022-11-08T03:02:58.369Z,75.67
2022-11-08T03:04:00.507Z,75.53
2022-11-08T03:05:02.870Z,75.57
2022-11-08T03:06:05.335Z,75.77
2022-11-08T03:07:07.474Z,76.09
2022-11-08T03:08:09.992Z,76.27
2022-11-08T03:09:12.366Z,76.37
2022-11-08T03:10:15.558Z,76.15
2022-11-08T03:11:17.719Z,76.20
2022-11-08T03:12:20.286Z,76.46
2022-11-08T03:13:22.646Z,76.45
2022-11-08T03:14:24.801Z,76.71
2022-11-08T03:15:28.284Z,76.57
2022-11-08T03:16:30.644Z,76.85
2022-11-08T03:17:33.517Z,76.86
2022-11-08T03:18:36.043Z,77.12
2022-11-08T03:19:38.205Z,77.11
2022-11-08T03:20:40.607Z,77.13
2022-11-08T03:21:42.967Z,77.17
2022-11-08T03:22:46.172Z,77.27
2022-11-08T03:23:48.815Z,77.34
2022-11-08T03:24:51.302Z,77.82
2022-11-08T03:25:53.466Z,77.93
2022-11-08T03:26:55.634Z,77.95
2022-11-08T03:28:03.009Z,77.93
2022-11-08T03:29:05.380Z,78.31
2022-11-08T03:30:07.960Z,78.43
2022-11-08T03:31:10.350Z,78.58
2022-11-08T03:32:14.086Z,78.93
2022-11-08T03:33:16.437Z,78.79
2022-11-08T03:34:19.004Z,78.46
2022-11-08T03:35:21.294Z,78.56
2022-11-08T03:36:23.852Z,78.71
2022-11-08T03:37:26.198Z,78.74
2022-11-08T03:38:28.504Z,78.77
2022-11-08T03:39:31.002Z,78.72
2022-11-08T03:40:33.230Z,78.90
2022-11-08T03:41:35.467Z,78.98
2022-11-08T03:42:37.807Z,79.29
2022-11-08T03:43:39.959Z,79.36
2022-11-08T03:44:42.355Z,79.21
2022-11-08T03:45:45.662Z,79.23
2022-11-08T03:46:47.809Z,79.07
2022-11-08T03:47:49.984Z,79.04
2022-11-08T03:48:52.337Z,78.89
2022-11-08T03:49:54.677Z,78.92
2022-11-08T03:50:56.827Z,78.92
2022-11-08T03:51:58.981Z,78.94
2022-11-08T03:53:01.179Z,78.81
2022-11-08T03:54:03.593Z,78.72
2022-11-08T03:55:06.503Z,78.60
2022-11-08T03:56:08.703Z,78.71
2022-11-08T03:57:12.494Z,78.53
2022-11-08T03:58:14.848Z,78.44
2022-11-08T03:59:17.363Z,78.53
2022-11-08T04:00:29.372Z,78.59
2022-11-08T04:01:32.265Z,78.26
2022-11-08T04:02:34.747Z,77.92
2022-11-08T04:03:36.976Z,78.02
2022-11-08T04:04:39.334Z,78.40
2022-11-08T04:05:41.534Z,78.59
2022-11-08T04:06:43.686Z,78.63
2022-11-08T04:07:45.879Z,78.54
2022-11-08T04:08:48.226Z,78.39
2022-11-08T04:09:50.601Z,78.61
2022-11-08T04:11:22.544Z,78.53
2022-11-08T04:12:43.767Z,78.53
2022-11-08T04:14:04.764Z,78.50
2022-11-08T04:15:15.397Z,78.34
2022-11-08T04:16:18.093Z,78.52
2022-11-08T04:17:40.498Z,78.49
2022-11-08T04:19:01.116Z,78.42
2022-11-08T04:20:22.220Z,78.44
2022-11-08T04:21:24.437Z,78.26
2022-11-08T04:22:26.846Z,78.46
2022-11-08T04:23:30.402Z,78.44
2022-11-08T04:24:32.615Z,78.28
2022-11-08T04:25:35.436Z,78.09
2022-11-08T04:26:38.727Z,78.28
2022-11-08T04:27:40.863Z,78.20
2022-11-08T04:28:43.713Z,78.10
2022-11-08T04:29:46.077Z,78.25
2022-11-08T04:30:52.808Z,78.35
2022-11-08T04:31:55.191Z,78.32
2022-11-08T04:33:00.361Z,78.31
2022-11-08T04:34:03.023Z,78.40
2022-11-08T04:35:05.659Z,78.53
2022-11-08T04:36:14.035Z,78.29
2022-11-08T04:37:16.205Z,78.30
2022-11-08T04:38:19.782Z,78.00
2022-11-08T04:39:22.228Z,77.87
2022-11-08T04:40:24.388Z,77.89
2022-11-08T04:41:27.151Z,77.72
2022-11-08T04:42:29.346Z,77.73
2022-11-08T04:43:32.554Z,77.92
2022-11-08T04:44:34.948Z,77.72
2022-11-08T04:45:37.141Z,77.68
2022-11-08T04:46:39.743Z,77.93
2022-11-08T04:47:47.242Z,77.95
2022-11-08T04:48:52.346Z,78.07
2022-11-08T04:49:54.738Z,78.22
2022-11-08T04:51:02.332Z,78.37
2022-11-08T04:52:05.017Z,78.02
2022-11-08T04:53:07.160Z,78.31
2022-11-08T04:54:10.809Z,78.41
2022-11-08T04:55:13.129Z,78.09
2022-11-08T04:56:19.548Z,78.15
2022-11-08T04:57:22.219Z,77.81
2022-11-08T04:58:24.399Z,77.91
2022-11-08T04:59:26.564Z,77.88
2022-11-08T05:00:28.830Z,78.27
2022-11-08T05:01:31.829Z,78.18
2022-11-08T05:02:34.390Z,77.84
2022-11-08T05:03:36.953Z,78.04
2022-11-08T05:04:39.181Z,78.00
2022-11-08T05:05:41.514Z,77.95
2022-11-08T05:06:44.589Z,78.09
2022-11-08T05:07:46.957Z,77.91
2022-11-08T05:08:49.485Z,78.32
2022-11-08T05:09:51.834Z,78.44
2022-11-08T05:11:00.708Z,78.07
2022-11-08T05:12:03.187Z,78.03
2022-11-08T05:13:05.377Z,78.29
2022-11-08T05:14:07.555Z,78.37
2022-11-08T05:15:10.257Z,78.33
2022-11-08T05:16:24.826Z,78.35
2022-11-08T05:17:27.071Z,77.92
2022-11-08T05:18:30.240Z,78.28
2022-11-08T05:20:04.662Z,78.49
2022-11-08T05:21:28.425Z,78.52
2022-11-08T05:22:49.779Z,78.43
2022-11-08T05:23:51.987Z,78.59
2022-11-08T05:24:54.370Z,78.20
2022-11-08T05:25:58.011Z,78.28
2022-11-08T05:27:00.138Z,78.30
2022-11-08T05:28:02.679Z,78.24
2022-11-08T05:29:05.389Z,78.51
2022-11-08T05:30:08.271Z,78.71
2022-11-08T05:31:12.242Z,78.36
2022-11-08T05:32:14.376Z,78.37
2022-11-08T05:33:16.739Z,78.36
2022-11-08T05:34:18.945Z,78.31
2022-11-08T05:35:22.936Z,78.16
2022-11-08T05:36:25.091Z,77.96
2022-11-08T05:37:27.247Z,78.02
2022-11-08T05:38:30.552Z,78.19
2022-11-08T05:39:32.710Z,78.29
2022-11-08T05:40:34.851Z,78.52
2022-11-08T05:41:37.252Z,78.27
2022-11-08T05:42:39.647Z,78.49
2022-11-08T05:43:42.996Z,78.46
2022-11-08T05:44:45.507Z,78.45
2022-11-08T05:45:48.136Z,78.49
2022-11-08T05:46:50.284Z,78.51
2022-11-08T05:47:52.862Z,78.36
2022-11-08T05:48:55.228Z,78.32
2022-11-08T05:49:57.412Z,78.63
2022-11-08T05:50:59.935Z,78.84
2022-11-08T05:52:02.090Z,78.91
2022-11-08T05:53:04.355Z,79.21
2022-11-08T05:54:08.286Z,79.43
2022-11-08T05:55:10.969Z,79.47
2022-11-08T05:56:13.131Z,79.40
2022-11-08T05:57:19.911Z,79.52
2022-11-08T05:58:24.202Z,79.49
2022-11-08T05:59:26.740Z,79.48
2022-11-08T06:00:28.890Z,79.31
2022-11-08T06:01:31.095Z,79.43
2022-11-08T06:02:33.558Z,79.53
2022-11-08T06:03:36.636Z,79.72
2022-11-08T06:04:38.853Z,79.69
2022-11-08T06:05:41.009Z,79.88
2022-11-08T06:06:43.148Z,79.78
2022-11-08T06:07:45.780Z,79.76
2022-11-08T06:08:51.917Z,79.82
2022-11-08T06:09:55.400Z,80.00
2022-11-08T06:11:05.827Z,80.02
2022-11-08T06:12:08.253Z,80.13
2022-11-08T06:13:10.695Z,80.23
2022-11-08T06:14:13.528Z,79.97
2022-11-08T06:15:16.012Z,79.99
2022-11-08T06:16:19.424Z,79.88
2022-11-08T06:17:24.828Z,79.73
2022-11-08T06:18:32.550Z,80.01
2022-11-08T06:19:34.930Z,79.85
2022-11-08T06:20:37.222Z,79.90
2022-11-08T06:21:39.446Z,80.10
2022-11-08T06:22:43.434Z,80.23
2022-11-08T06:23:46.046Z,80.22
2022-11-08T06:24:48.380Z,80.11
2022-11-08T06:25:50.556Z,80.00
2022-11-08T06:26:52.984Z,80.02
2022-11-08T06:27:55.357Z,80.09
2022-11-08T06:28:57.543Z,80.04
2022-11-08T06:30:00.153Z,80.21
2022-11-08T06:31:03.871Z,80.23
2022-11-08T06:32:06.003Z,80.22
2022-11-08T06:33:08.369Z,80.19
2022-11-08T06:34:11.033Z,80.12
2022-11-08T06:35:13.392Z,80.03
2022-11-08T06:36:16.095Z,79.96
2022-11-08T06:37:18.312Z,79.88
2022-11-08T06:38:20.727Z,79.74
2022-11-08T06:39:22.910Z,79.56
2022-11-08T06:40:25.455Z,79.11
2022-11-08T06:41:29.885Z,79.13
2022-11-08T06:42:32.225Z,79.31
2022-11-08T06:43:34.373Z,79.14
2022-11-08T06:44:36.870Z,79.29
2022-11-08T06:45:39.776Z,79.26
2022-11-08T06:46:41.932Z,79.22
2022-11-08T06:47:44.300Z,78.97
2022-11-08T06:48:46.599Z,78.52
2022-11-08T06:49:48.937Z,78.45
2022-11-08T06:50:51.433Z,78.49
2022-11-08T06:51:53.619Z,78.30
2022-11-08T06:53:14.731Z,78.50
2022-11-08T06:54:18.210Z,78.37
2022-11-08T06:55:20.867Z,78.12
2022-11-08T06:56:23.037Z,78.21
2022-11-08T06:57:25.373Z,77.91
2022-11-08T06:58:27.775Z,77.55
2022-11-08T06:59:30.254Z,77.38
2022-11-08T07:00:32.622Z,77.43
2022-11-08T07:01:35.144Z,77.77
2022-11-08T07:02:37.995Z,77.84
2022-11-08T07:03:40.392Z,77.84
2022-11-08T07:04:42.731Z,77.86
2022-11-08T07:05:45.006Z,77.82
2022-11-08T07:06:47.280Z,77.79
2022-11-08T07:07:52.107Z,77.95
2022-11-08T07:08:54.504Z,77.85
2022-11-08T07:10:02.353Z,77.85
2022-11-08T07:11:06.845Z,78.13
2022-11-08T07:12:09.911Z,77.96
2022-11-08T07:13:13.908Z,77.90
2022-11-08T07:14:16.267Z,78.02
2022-11-08T07:15:18.524Z,77.89
2022-11-08T07:16:20.935Z,77.63
2022-11-08T07:17:23.129Z,77.80
2022-11-08T07:18:26.396Z,78.15
2022-11-08T07:19:28.817Z,78.09
2022-11-08T07:20:31.298Z,77.92
2022-11-08T07:21:33.637Z,77.90
2022-11-08T07:22:35.850Z,77.79
2022-11-08T07:23:38.252Z,77.70
2022-11-08T07:24:40.428Z,77.59
2022-11-08T07:25:43.026Z,77.35
2022-11-08T07:26:45.202Z,77.73
2022-11-08T07:27:47.426Z,77.79
2022-11-08T07:28:49.794Z,78.08
2022-11-08T07:29:51.977Z,78.45
2022-11-08T07:30:58.938Z,78.64
2022-11-08T07:32:01.137Z,78.31
2022-11-08T07:33:04.003Z,78.25
2022-11-08T07:34:06.154Z,78.73
2022-11-08T07:35:08.596Z,78.60
2022-11-08T07:36:11.009Z,78.90
2022-11-08T07:37:13.227Z,78.87
2022-11-08T07:38:15.477Z,78.89
2022-11-08T07:39:17.626Z,78.90
2022-11-08T07:40:19.828Z,78.76
2022-11-08T07:41:22.444Z,78.68
2022-11-08T07:42:26.008Z,78.42
2022-11-08T07:43:41.085Z,78.25
2022-11-08T07:44:51.366Z,77.91
2022-11-08T07:45:56.565Z,77.56
2022-11-08T07:46:59.089Z,76.96
2022-11-08T07:48:10.745Z,76.20
2022-11-08T07:49:13.956Z,75.20
2022-11-08T07:50:18.015Z,74.38
2022-11-08T07:51:20.491Z,73.93
2022-11-08T07:52:22.684Z,73.75
2022-11-08T07:53:25.115Z,73.85
2022-11-08T07:54:27.493Z,73.78
2022-11-08T07:55:29.704Z,73.89
2022-11-08T07:56:32.108Z,74.11
2022-11-08T07:57:34.293Z,73.90
2022-11-08T07:58:36.595Z,73.57
2022-11-08T07:59:38.990Z,72.77
2022-11-08T08:00:43.305Z,72.32
2022-11-08T08:01:45.740Z,72.19
2022-11-08T08:02:48.017Z,71.95
2022-11-08T08:03:50.375Z,71.34
2022-11-08T08:04:52.655Z,70.89
2022-11-08T08:06:00.486Z,70.50
2022-11-08T08:07:03.292Z,70.14
2022-11-08T08:08:06.173Z,69.89
2022-11-08T08:09:08.550Z,69.72
2022-11-08T08:10:10.800Z,69.45
2022-11-08T08:11:12.992Z,69.16
2022-11-08T08:12:15.523Z,68.60
2022-11-08T08:13:18.048Z,68.17
2022-11-08T08:14:20.663Z,67.82
2022-11-08T08:15:23.585Z,67.30
2022-11-08T08:16:25.767Z,66.99
2022-11-08T08:17:28.337Z,66.53
2022-11-08T08:18:30.939Z,66.02
2022-11-08T08:19:33.103Z,65.71
2022-11-08T08:20:36.963Z,65.47
2022-11-08T08:21:39.122Z,64.81
2022-11-08T08:22:49.717Z,64.68
2022-11-08T08:23:51.948Z,63.97
2022-11-08T08:24:54.097Z,63.27
2022-11-08T08:25:56.841Z,63.20
2022-11-08T08:26:59.422Z,62.92
2022-11-08T08:28:01.886Z,62.95
2022-11-08T08:29:04.166Z,62.79
2022-11-08T08:30:07.241Z,62.53
2022-11-08T08:31:09.683Z,62.51
2022-11-08T08:32:12.225Z,62.05
2022-11-08T08:33:32.717Z,61.70
2022-11-08T08:34:35.077Z,61.67
2022-11-08T08:35:38.246Z,61.33
2022-11-08T08:36:40.596Z,61.29
2022-11-08T08:37:43.012Z,60.99
2022-11-08T08:38:45.272Z,61.13
2022-11-08T08:39:48.260Z,60.99
2022-11-08T08:40:51.357Z,60.88
2022-11-08T08:41:53.777Z,60.88
2022-11-08T08:42:58.807Z,60.69
2022-11-08T08:44:00.957Z,60.57
2022-11-08T08:45:03.590Z,60.41
2022-11-08T08:46:06.831Z,60.01
2022-11-08T08:47:09.188Z,59.78
2022-11-08T08:48:12.090Z,59.33
2022-11-08T08:49:14.286Z,59.32
2022-11-08T08:50:16.499Z,59.62
2022-11-08T08:51:18.962Z,59.26
2022-11-08T08:52:21.603Z,59.12
2022-11-08T08:53:24.782Z,58.35
2022-11-08T08:54:29.582Z,58.49
2022-11-08T08:55:35.168Z,58.57
2022-11-08T08:56:37.342Z,59.06
2022-11-08T08:57:43.397Z,58.45
2022-11-08T08:58:45.697Z,58.37
2022-11-08T09:02:32.770Z,58.15
2022-11-08T09:03:36.203Z,57.88
2022-11-08T09:04:39.117Z,57.81
2022-11-08T09:05:43.980Z,57.66
2022-11-08T09:06:46.396Z,58.00
2022-11-08T09:07:48.817Z,58.10
2022-11-08T09:08:51.213Z,57.96
2022-11-08T09:09:53.369Z,58.47
2022-11-08T09:10:57.385Z,58.57
2022-11-08T09:11:59.956Z,58.53
2022-11-08T09:13:03.907Z,59.13
2022-11-08T09:14:06.057Z,59.15
2022-11-08T09:15:08.710Z,59.03
2022-11-08T09:16:13.492Z,59.09
2022-11-08T09:17:15.964Z,59.39
2022-11-08T09:18:18.664Z,59.26
2022-11-08T09:19:20.906Z,59.45
2022-11-08T09:20:24.041Z,59.37
2022-11-08T09:21:26.221Z,59.05
2022-11-08T09:22:29.193Z,59.17
2022-11-08T09:23:31.664Z,58.83
2022-11-08T09:24:34.668Z,58.33
2022-11-08T09:25:36.886Z,58.04
2022-11-08T09:26:39.154Z,58.19
2022-11-08T09:27:41.855Z,58.26
2022-11-08T09:28:44.600Z,58.26
2022-11-08T09:29:46.757Z,57.97
2022-11-08T09:30:49.007Z,57.65
2022-11-08T09:31:51.238Z,57.34
2022-11-08T09:33:00.945Z,57.19
2022-11-08T09:35:11.200Z,57.18
2022-11-08T09:36:13.772Z,57.45
2022-11-08T09:37:15.985Z,57.20
2022-11-08T09:38:18.564Z,57.16
2022-11-08T09:39:21.181Z,57.26
2022-11-08T09:40:33.314Z,56.88
2022-11-08T09:42:02.311Z,56.90
2022-11-08T09:43:07.248Z,56.90
2022-11-08T09:44:35.046Z,56.95
2022-11-08T09:45:52.560Z,56.90
2022-11-08T09:47:01.889Z,56.59
2022-11-08T09:48:13.467Z,56.83
2022-11-08T09:49:21.680Z,56.84
2022-11-08T09:50:38.725Z,56.66
2022-11-08T09:51:41.191Z,56.55
2022-11-08T09:52:49.764Z,56.84
2022-11-08T09:53:55.038Z,56.55
2022-11-08T09:55:20.574Z,56.86
2022-11-08T09:56:30.408Z,56.93
2022-11-08T09:57:49.494Z,56.99
2022-11-08T09:59:02.568Z,56.45
2022-11-08T10:00:06.492Z,56.38
2022-11-08T10:01:11.828Z,56.44
2022-11-08T10:02:18.417Z,56.79
2022-11-08T10:03:24.372Z,56.66
2022-11-08T10:04:30.119Z,56.51
2022-11-08T10:05:40.441Z,56.47
2022-11-08T10:07:02.405Z,56.41
2022-11-08T10:08:28.686Z,56.88
2022-11-08T10:09:43.932Z,56.71
2022-11-08T10:10:55.431Z,56.69
2022-11-08T10:12:09.034Z,56.94
2022-11-08T10:13:38.130Z,56.69
2022-11-08T10:14:54.627Z,56.84
2022-11-08T10:16:13.427Z,56.95
2022-11-08T10:17:50.990Z,57.07
2022-11-08T10:19:12.370Z,56.85
2022-11-08T10:20:35.610Z,57.28
2022-11-08T10:22:02.342Z,57.30
2022-11-08T10:23:27.199Z,57.35
2022-11-08T10:25:00.890Z,57.47
2022-11-08T10:26:15.279Z,57.46
2022-11-08T10:27:43.932Z,57.89
2022-11-08T10:29:28.147Z,58.00
2022-11-08T10:30:36.703Z,58.13
2022-11-08T10:31:41.307Z,57.99
2022-11-08T10:32:43.842Z,58.02
2022-11-08T10:33:54.097Z,57.97
2022-11-08T10:35:04.327Z,57.79
2022-11-08T10:36:49.838Z,57.82
2022-11-08T10:37:56.092Z,57.74
2022-11-08T10:39:04.032Z,57.82
2022-11-08T10:40:16.972Z,57.93
2022-11-08T10:41:32.222Z,57.87
2022-11-08T10:42:44.606Z,57.86
2022-11-08T10:43:52.071Z,57.43
2022-11-08T10:44:54.198Z,57.52
2022-11-08T10:45:56.666Z,57.55
2022-11-08T10:47:01.898Z,58.14
2022-11-08T10:48:05.130Z,58.21
2022-11-08T10:49:33.253Z,58.18
2022-11-08T10:50:45.841Z,58.03
2022-11-08T10:51:51.939Z,58.74
2022-11-08T10:52:59.865Z,58.49
2022-11-08T10:54:02.136Z,58.16
2022-11-08T10:55:07.946Z,58.02
2022-11-08T10:56:12.357Z,57.79
2022-11-08T10:57:31.555Z,57.81
2022-11-08T10:58:39.347Z,57.58
2022-11-08T10:59:42.207Z,57.70
2022-11-08T11:00:44.581Z,57.65
2022-11-08T11:01:51.107Z,57.73
2022-11-08T11:02:56.765Z,57.97
2022-11-08T11:04:24.951Z,57.86
2022-11-08T11:05:29.888Z,57.10
2022-11-08T11:06:33.673Z,57.13
2022-11-08T11:07:36.619Z,57.24
2022-11-08T11:08:49.364Z,57.73
2022-11-08T11:09:51.764Z,57.55
2022-11-08T11:10:54.570Z,57.49
2022-11-08T11:12:07.686Z,57.27
2022-11-08T11:13:12.663Z,57.57
2022-11-08T11:14:21.897Z,57.45
2022-11-08T11:15:31.344Z,57.05
2022-11-08T11:16:35.518Z,57.12
2022-11-08T11:17:40.151Z,57.00
2022-11-08T11:18:47.754Z,57.15
2022-11-08T11:19:57.584Z,57.04
2022-11-08T11:21:13.776Z,57.25
2022-11-08T11:22:16.181Z,57.34
2022-11-08T11:23:18.423Z,57.82
2022-11-08T11:24:21.153Z,58.18
2022-11-08T11:25:24.127Z,58.04
2022-11-08T11:26:27.700Z,58.01
2022-11-08T11:27:34.014Z,57.92
2022-11-08T11:28:36.268Z,57.72
2022-11-08T11:29:39.286Z,57.64
2022-11-08T11:30:42.182Z,57.50
2022-11-08T11:31:47.389Z,57.49
2022-11-08T11:33:24.084Z,57.18
2022-11-08T11:34:55.319Z,56.87
2022-11-08T11:35:57.634Z,56.72
2022-11-08T11:36:59.662Z,56.51
2022-11-08T11:38:06.501Z,55.96
2022-11-08T11:39:16.238Z,55.81
2022-11-08T11:40:30.509Z,55.30
2022-11-08T11:41:51.616Z,55.38
2022-11-08T11:43:07.562Z,55.06
2022-11-08T11:44:20.822Z,54.64
2022-11-08T11:45:31.574Z,54.95
2022-11-08T11:46:41.650Z,55.28
2022-11-08T11:47:50.766Z,55.07
2022-11-08T11:49:01.339Z,55.02
2022-11-08T11:50:14.912Z,55.21
2022-11-08T11:51:17.166Z,55.25
2022-11-08T11:52:19.909Z,55.11
2022-11-08T11:53:29.553Z,54.80
2022-11-08T11:54:33.842Z,54.84
2022-11-08T11:55:51.417Z,54.87
2022-11-08T11:56:53.515Z,54.68
2022-11-08T11:58:13.057Z,54.72
2022-11-08T11:59:41.630Z,54.81
2022-11-08T12:00:51.815Z,54.93
2022-11-08T12:02:06.283Z,55.10
2022-11-08T12:03:30.715Z,55.14
2022-11-08T12:04:38.664Z,54.55
2022-11-08T12:06:05.453Z,54.44
2022-11-08T12:07:21.430Z,54.72
2022-11-08T12:08:37.343Z,54.59
2022-11-08T12:09:54.594Z,54.20
2022-11-08T12:11:17.974Z,54.21
2022-11-08T12:13:01.055Z,54.34
2022-11-08T12:14:18.405Z,54.21
2022-11-08T12:15:36.290Z,53.68
2022-11-08T12:17:06.868Z,53.21
2022-11-08T12:18:53.286Z,52.92
2022-11-08T12:20:34.633Z,53.25
2022-11-08T12:22:22.716Z,53.38
2022-11-08T12:23:30.614Z,53.37
2022-11-08T12:24:32.749Z,52.93
2022-11-08T12:25:40.483Z,52.81
2022-11-08T12:26:52.373Z,52.69
2022-11-08T12:28:32.796Z,52.54
2022-11-08T12:29:59.051Z,53.08
2022-11-08T12:31:01.394Z,52.36
2022-11-08T12:32:33.474Z,52.51
2022-11-08T12:33:58.239Z,52.21
2022-11-08T12:35:19.714Z,52.54
2022-11-08T12:36:43.069Z,53.54
2022-11-08T12:38:02.512Z,53.92
2022-11-08T12:39:14.782Z,54.03
2022-11-08T12:40:51.258Z,54.08
2022-11-08T12:42:14.386Z,53.86
2022-11-08T12:43:25.340Z,54.35
2022-11-08T12:44:54.118Z,54.36
2022-11-08T12:46:08.831Z,54.03
2022-11-08T12:47:23.306Z,54.29
2022-11-08T12:48:49.865Z,54.08
2022-11-08T12:50:17.242Z,54.14
2022-11-08T12:51:39.640Z,54.22
2022-11-08T12:53:06.326Z,54.28
2022-11-08T12:54:26.668Z,53.97
2022-11-08T12:55:37.398Z,53.86
2022-11-08T12:56:43.984Z,54.05
2022-11-08T12:57:46.503Z,54.10
2022-11-08T12:58:53.615Z,54.19
2022-11-08T13:00:04.891Z,53.93
2022-11-08T13:01:12.100Z,54.34
2022-11-08T13:02:26.259Z,54.65
2022-11-08T13:03:44.093Z,54.85
2022-11-08T13:04:51.864Z,54.45
2022-11-08T13:06:15.023Z,54.83
2022-11-08T13:07:32.090Z,54.70
2022-11-08T13:09:03.195Z,54.57
2022-11-08T13:10:12.778Z,54.32
2022-11-08T13:11:30.109Z,54.72
2022-11-08T13:12:40.929Z,54.43
2022-11-08T13:13:53.047Z,54.62
2022-11-08T13:14:56.068Z,54.76
2022-11-08T13:16:21.535Z,54.55
2022-11-08T13:17:26.789Z,54.80
2022-11-08T13:18:56.789Z,54.53
2022-11-08T13:20:05.355Z,54.19
2022-11-08T13:21:25.918Z,53.99
2022-11-08T13:22:34.224Z,53.95
2022-11-08T13:23:36.540Z,53.77
2022-11-08T13:24:45.493Z,53.96
2022-11-08T13:25:49.176Z,54.03
2022-11-08T13:26:53.727Z,54.19
2022-11-08T13:27:59.656Z,54.18
2022-11-08T13:29:25.664Z,54.64
2022-11-08T13:30:37.710Z,54.76
2022-11-08T13:32:03.084Z,54.73
2022-11-08T13:33:21.841Z,54.80
2022-11-08T13:35:03.560Z,54.99
2022-11-08T13:36:17.985Z,55.08
2022-11-08T13:37:45.102Z,55.40
2022-11-08T13:39:05.205Z,54.85
2022-11-08T13:40:13.243Z,55.03
2022-11-08T13:41:20.125Z,54.96
2022-11-08T13:42:22.398Z,55.08
2022-11-08T13:43:29.634Z,55.01
2022-11-08T13:45:00.099Z,55.16
2022-11-08T13:46:22.779Z,54.94
2022-11-08T13:47:33.973Z,54.88
2022-11-08T13:48:40.997Z,55.05
2022-11-08T13:49:43.154Z,54.96
2022-11-08T13:50:52.623Z,55.09
2022-11-08T13:52:31.870Z,55.10
2022-11-08T13:53:47.275Z,55.14
2022-11-08T13:54:51.607Z,55.26
2022-11-08T13:55:53.705Z,55.16
2022-11-08T13:57:02.539Z,55.60
2022-11-08T13:58:43.183Z,56.11
2022-11-08T13:59:45.525Z,55.85
2022-11-08T14:00:47.892Z,55.83
2022-11-08T14:01:59.418Z,56.14
2022-11-08T14:03:01.659Z,55.79
2022-11-08T14:04:24.036Z,55.69
2022-11-08T14:05:27.972Z,55.74
2022-11-08T14:06:38.512Z,55.90
2022-11-08T14:07:52.187Z,55.90
2022-11-08T14:09:30.695Z,56.16
2022-11-08T14:10:48.937Z,56.31
2022-11-08T14:12:00.149Z,56.30
2022-11-08T14:13:11.158Z,56.32
2022-11-08T14:14:19.437Z,56.76
2022-11-08T14:15:34.537Z,56.86
2022-11-08T14:16:51.620Z,56.67
2022-11-08T14:18:04.562Z,56.95
2022-11-08T14:19:24.912Z,56.85
2022-11-08T14:20:41.666Z,57.07
2022-11-08T14:21:53.690Z,57.29
2022-11-08T14:22:58.175Z,57.26
2022-11-08T14:24:00.339Z,57.42
2022-11-08T14:25:18.253Z,57.45
2022-11-08T14:26:23.034Z,57.52
2022-11-08T14:27:37.603Z,57.64
2022-11-08T14:28:42.379Z,57.63
2022-11-08T14:29:44.620Z,57.39